createdAt,value
2022-08-30T00:00:01.741Z,100553.38
2022-08-30T00:02:53.171Z,100551.79
2022-08-30T00:05:21.618Z,100548.50
2022-08-30T00:07:50.350Z,100544.91
2022-08-30T00:10:19.385Z,100540.48
2022-08-30T00:12:49.108Z,100528.16
2022-08-30T00:15:19.362Z,100520.79
2022-08-30T00:17:47.749Z,100517.65
2022-08-30T00:20:21.717Z,100513.53
2022-08-30T00:22:49.932Z,100501.27
2022-08-30T00:25:19.658Z,100504.91
2022-08-30T00:27:49.108Z,100507.34
2022-08-30T00:30:19.724Z,100518.86
2022-08-30T00:32:49.527Z,100525.31
2022-08-30T00:35:20.626Z,100525.82
2022-08-30T00:37:49.548Z,100522.77
2022-08-30T00:40:20.582Z,100519.58
2022-08-30T00:43:04.146Z,100522.36
2022-08-30T00:45:37.849Z,100527.23
2022-08-30T00:48:07.834Z,100525.20
2022-08-30T00:50:50.897Z,100518.52
2022-08-30T00:53:29.396Z,100503.72
2022-08-30T00:56:00.110Z,100507.73
2022-08-30T00:58:34.244Z,100515.80
2022-08-30T01:01:03.431Z,100523.83
2022-08-30T01:03:32.645Z,100533.65
2022-08-30T01:06:01.519Z,100536.89
2022-08-30T01:08:29.942Z,100546.47
2022-08-30T01:10:59.482Z,100549.30
2022-08-30T01:13:31.818Z,100553.35
2022-08-30T01:16:01.527Z,100559.21
2022-08-30T01:18:32.275Z,100561.04
2022-08-30T01:21:36.301Z,100556.26
2022-08-30T01:24:07.123Z,100559.88
2022-08-30T01:26:37.339Z,100561.65
2022-08-30T01:29:15.542Z,100559.73
2022-08-30T01:31:43.834Z,100555.97
2022-08-30T01:34:12.627Z,100555.47
2022-08-30T01:36:45.013Z,100553.86
2022-08-30T01:39:17.730Z,100558.31
2022-08-30T01:41:46.532Z,100556.23
2022-08-30T01:44:16.819Z,100558.16
2022-08-30T01:46:48.625Z,100565.08
2022-08-30T01:49:27.612Z,100564.14
2022-08-30T01:52:00.260Z,100569.82
2022-08-30T01:54:38.142Z,100564.17
2022-08-30T01:57:15.215Z,100563.63
2022-08-30T01:59:47.700Z,100565.32
2022-08-30T02:02:21.036Z,100567.84
2022-08-30T02:04:50.283Z,100568.17
2022-08-30T02:07:18.660Z,100571.17
2022-08-30T02:09:47.609Z,100572.58
2022-08-30T02:12:15.878Z,100573.63
2022-08-30T02:14:44.444Z,100578.07
2022-08-30T02:17:14.977Z,100579.32
2022-08-30T02:19:43.751Z,100581.83
2022-08-30T02:22:12.932Z,100580.90
2022-08-30T02:24:41.281Z,100579.85
2022-08-30T02:27:09.743Z,100578.43
2022-08-30T02:29:38.479Z,100578.69
2022-08-30T02:32:06.904Z,100583.70
2022-08-30T02:34:35.230Z,100581.96
2022-08-30T02:37:03.674Z,100581.95
2022-08-30T02:39:32.195Z,100589.72
2022-08-30T02:42:00.536Z,100588.27
2022-08-30T02:44:28.807Z,100586.98
2022-08-30T02:46:57.106Z,100586.92
2022-08-30T02:49:33.948Z,100582.42
2022-08-30T02:52:05.854Z,100584.73
2022-08-30T02:54:34.252Z,100586.67
2022-08-30T02:57:06.892Z,100587.30
2022-08-30T02:59:37.983Z,100585.21
2022-08-30T03:02:09.012Z,100587.27
2022-08-30T03:04:39.452Z,100590.80
2022-08-30T03:07:08.761Z,100594.08
2022-08-30T03:09:37.256Z,100597.10
2022-08-30T03:12:07.274Z,100603.73
2022-08-30T03:14:38.233Z,100600.17
2022-08-30T03:17:15.474Z,100605.22
2022-08-30T03:19:46.272Z,100612.24
2022-08-30T03:22:14.659Z,100610.48
2022-08-30T03:24:42.995Z,100608.65
2022-08-30T03:27:12.086Z,100602.10
2022-08-30T03:29:40.395Z,100604.11
2022-08-30T03:32:08.765Z,100602.65
2022-08-30T03:34:37.062Z,100598.60
2022-08-30T03:37:05.438Z,100602.79
2022-08-30T03:39:33.930Z,100600.88
2022-08-30T03:42:03.080Z,100602.16
2022-08-30T03:44:32.066Z,100602.55
2022-08-30T03:47:00.809Z,100597.98
2022-08-30T03:49:29.212Z,100600.64
2022-08-30T03:51:57.813Z,100604.04
2022-08-30T03:54:26.306Z,100604.24
2022-08-30T03:56:54.622Z,100603.69
2022-08-30T03:59:23.544Z,100603.05
2022-08-30T04:01:51.928Z,100603.77
2022-08-30T04:04:21.223Z,100604.61
2022-08-30T04:06:50.127Z,100605.09
2022-08-30T04:09:19.190Z,100602.83
2022-08-30T04:11:47.741Z,100603.17
2022-08-30T04:14:16.002Z,100607.55
2022-08-30T04:16:44.960Z,100609.58
2022-08-30T04:19:13.599Z,100612.58
2022-08-30T04:21:44.982Z,100615.98
2022-08-30T04:24:14.027Z,100620.06
2022-08-30T04:26:42.695Z,100622.02
2022-08-30T04:29:12.420Z,100624.77
2022-08-30T04:31:40.760Z,100626.15
2022-08-30T04:34:14.355Z,100630.47
2022-08-30T04:36:47.505Z,100632.84
2022-08-30T04:39:18.673Z,100634.82
2022-08-30T04:41:47.672Z,100632.60
2022-08-30T04:44:19.224Z,100631.17
2022-08-30T04:46:48.402Z,100629.06
2022-08-30T04:49:16.908Z,100628.48
2022-08-30T04:51:45.613Z,100628.47
2022-08-30T04:54:13.868Z,100627.08
2022-08-30T04:56:43.880Z,100622.55
2022-08-30T04:59:12.259Z,100617.52
2022-08-30T05:01:45.712Z,100618.85
2022-08-30T05:04:16.130Z,100621.20
2022-08-30T05:06:44.563Z,100624.82
2022-08-30T05:09:13.103Z,100633.80
2022-08-30T05:11:43.466Z,100639.86
2022-08-30T05:14:12.353Z,100645.73
2022-08-30T05:16:41.811Z,100646.14
2022-08-30T05:19:10.195Z,100651.83
2022-08-30T05:21:41.394Z,100653.71
2022-08-30T05:24:09.921Z,100659.52
2022-08-30T05:26:39.046Z,100661.92
2022-08-30T05:29:07.606Z,100667.28
2022-08-30T05:31:36.986Z,100665.42
2022-08-30T05:34:05.552Z,100666.11
2022-08-30T05:36:37.425Z,100662.45
2022-08-30T05:39:09.096Z,100667.30
2022-08-30T05:41:39.087Z,100672.02
2022-08-30T05:44:09.915Z,100678.41
2022-08-30T05:46:39.854Z,100676.94
2022-08-30T05:49:08.346Z,100681.69
2022-08-30T05:51:43.374Z,100679.84
2022-08-30T05:54:15.114Z,100677.06
2022-08-30T05:56:45.678Z,100678.60
2022-08-30T05:59:14.878Z,100683.92
2022-08-30T06:01:46.917Z,100686.72
2022-08-30T06:04:16.341Z,100690.25
2022-08-30T06:06:44.769Z,100693.39
2022-08-30T06:09:14.929Z,100698.46
2022-08-30T06:11:44.836Z,100701.02
2022-08-30T06:14:14.796Z,100703.23
2022-08-30T06:16:46.432Z,100700.90
2022-08-30T06:19:16.277Z,100702.25
2022-08-30T06:21:48.626Z,100700.52
2022-08-30T06:24:17.372Z,100699.17
2022-08-30T06:26:47.554Z,100700.58
2022-08-30T06:29:21.328Z,100699.24
2022-08-30T06:31:50.718Z,100707.48
2022-08-30T06:34:19.684Z,100706.68
2022-08-30T06:36:48.017Z,100709.74
2022-08-30T06:39:16.390Z,100706.14
2022-08-30T06:41:44.684Z,100706.77
2022-08-30T06:44:34.530Z,100704.39
2022-08-30T06:47:03.729Z,100701.19
2022-08-30T06:49:32.082Z,100704.33
2022-08-30T06:52:00.562Z,100705.54
2022-08-30T06:54:29.392Z,100704.10
2022-08-30T06:56:58.970Z,100706.21
2022-08-30T06:59:28.187Z,100704.87
2022-08-30T07:01:57.781Z,100704.31
2022-08-30T07:04:26.960Z,100709.15
2022-08-30T07:06:55.341Z,100705.30
2022-08-30T07:09:24.162Z,100703.92
2022-08-30T07:11:53.638Z,100707.92
2022-08-30T07:14:23.245Z,100711.53
2022-08-30T07:16:52.103Z,100707.54
2022-08-30T07:19:22.389Z,100708.64
2022-08-30T07:21:50.941Z,100707.74
2022-08-30T07:24:20.421Z,100713.89
2022-08-30T07:26:52.203Z,100713.00
2022-08-30T07:29:21.637Z,100711.70
2022-08-30T07:31:50.225Z,100713.67
2022-08-30T07:34:20.581Z,100711.84
2022-08-30T07:36:51.151Z,100714.84
2022-08-30T07:39:20.146Z,100717.60
2022-08-30T07:41:49.067Z,100713.36
2022-08-30T07:44:17.930Z,100710.70
2022-08-30T07:46:46.605Z,100713.42
2022-08-30T07:49:15.097Z,100713.13
2022-08-30T07:51:43.510Z,100710.73
2022-08-30T07:54:12.095Z,100711.10
2022-08-30T07:56:40.644Z,100717.06
2022-08-30T07:59:09.128Z,100717.70
2022-08-30T08:01:37.556Z,100718.33
2022-08-30T08:04:06.192Z,100718.88
2022-08-30T08:06:40.331Z,100724.39
2022-08-30T08:09:09.437Z,100724.36
2022-08-30T08:11:39.949Z,100726.73
2022-08-30T08:14:09.389Z,100728.19
2022-08-30T08:16:39.012Z,100725.20
2022-08-30T08:19:09.474Z,100724.56
2022-08-30T08:21:38.318Z,100721.66
2022-08-30T08:24:07.596Z,100723.68
2022-08-30T08:26:38.580Z,100727.10
2022-08-30T08:29:10.366Z,100720.12
2022-08-30T08:31:39.047Z,100723.21
2022-08-30T08:34:09.100Z,100719.92
2022-08-30T08:36:37.890Z,100722.50
2022-08-30T08:39:09.339Z,100720.63
2022-08-30T08:42:05.873Z,100720.06
2022-08-30T08:44:58.890Z,100720.55
2022-08-30T08:47:39.269Z,100710.01
2022-08-30T08:50:18.728Z,100714.17
2022-08-30T08:53:56.514Z,100716.82
2022-08-30T08:56:24.953Z,100711.46
2022-08-30T08:58:57.549Z,100712.61
2022-08-30T09:01:30.597Z,100713.84
2022-08-30T09:04:06.007Z,100708.48
2022-08-30T09:07:04.391Z,100711.58
2022-08-30T09:09:38.940Z,100704.16
2022-08-30T09:12:11.338Z,100705.35
2022-08-30T09:14:46.828Z,100701.60
2022-08-30T09:17:18.054Z,100701.32
2022-08-30T09:20:07.397Z,100698.47
2022-08-30T09:22:46.547Z,100693.18
2022-08-30T09:25:26.538Z,100691.76
2022-08-30T09:28:08.771Z,100688.95
2022-08-30T09:30:40.124Z,100687.90
2022-08-30T09:33:21.289Z,100689.59
2022-08-30T09:35:54.595Z,100684.55
2022-08-30T09:38:32.791Z,100682.47
2022-08-30T09:41:43.341Z,100681.83
2022-08-30T09:44:29.886Z,100676.78
2022-08-30T09:47:01.300Z,100672.78
2022-08-30T09:49:44.639Z,100670.84
2022-08-30T09:53:02.056Z,100665.86
2022-08-30T09:55:57.742Z,100660.52
2022-08-30T09:59:09.587Z,100653.97
2022-08-30T10:01:46.426Z,100649.35
2022-08-30T10:04:40.981Z,100647.05
2022-08-30T10:07:50.797Z,100644.75
2022-08-30T10:10:30.651Z,100638.50
2022-08-30T10:13:22.917Z,100638.20
2022-08-30T10:16:41.954Z,100638.48
2022-08-30T10:19:36.401Z,100631.11
2022-08-30T10:22:19.673Z,100627.54
2022-08-30T10:24:57.062Z,100626.88
2022-08-30T10:27:34.761Z,100624.15
2022-08-30T10:30:11.896Z,100628.52
2022-08-30T10:32:58.965Z,100623.54
2022-08-30T10:35:40.221Z,100620.85
2022-08-30T10:38:31.877Z,100624.19
2022-08-30T10:41:29.293Z,100624.45
2022-08-30T10:44:13.788Z,100629.64
2022-08-30T10:47:25.073Z,100626.55
2022-08-30T10:50:04.928Z,100630.06
2022-08-30T10:52:48.052Z,100625.94
2022-08-30T10:55:27.180Z,100628.52
2022-08-30T10:58:04.851Z,100631.77
2022-08-30T11:01:12.565Z,100629.65
2022-08-30T11:04:14.272Z,100631.48
2022-08-30T11:07:04.133Z,100629.48
2022-08-30T11:09:51.959Z,100627.64
2022-08-30T11:12:28.120Z,100629.80
2022-08-30T11:14:57.421Z,100627.70
2022-08-30T11:17:44.645Z,100624.29
2022-08-30T11:20:46.641Z,100622.66
2022-08-30T11:23:38.767Z,100615.70
2022-08-30T11:26:20.302Z,100614.41
2022-08-30T11:28:49.129Z,100607.81
2022-08-30T11:31:23.515Z,100601.25
2022-08-30T11:33:55.472Z,100595.65
2022-08-30T11:36:37.573Z,100595.20
2022-08-30T11:39:48.312Z,100593.27
2022-08-30T11:42:45.068Z,100592.95
2022-08-30T11:45:24.843Z,100585.98
2022-08-30T11:48:01.181Z,100584.05
2022-08-30T11:50:58.868Z,100582.32
2022-08-30T11:53:55.621Z,100574.34
2022-08-30T11:56:37.100Z,100569.81
2022-08-30T11:59:29.176Z,100568.55
2022-08-30T12:01:58.900Z,100572.56
2022-08-30T12:04:46.582Z,100574.71
2022-08-30T12:08:28.545Z,100578.30
2022-08-30T12:11:17.182Z,100569.85
2022-08-30T12:13:46.129Z,100568.33
2022-08-30T12:17:01.380Z,100562.79
2022-08-30T12:19:33.201Z,100557.28
2022-08-30T12:22:07.265Z,100552.33
2022-08-30T12:24:40.343Z,100550.41
2022-08-30T12:27:26.807Z,100543.23
2022-08-30T12:30:08.760Z,100536.05
2022-08-30T12:32:50.532Z,100533.33
2022-08-30T12:35:25.967Z,100526.10
2022-08-30T12:38:04.550Z,100523.77
2022-08-30T12:40:34.844Z,100522.25
2022-08-30T12:43:17.579Z,100520.44
2022-08-30T12:45:50.874Z,100522.04
2022-08-30T12:48:23.120Z,100522.66
2022-08-30T12:50:59.326Z,100516.35
2022-08-30T12:53:42.114Z,100516.11
2022-08-30T12:56:21.158Z,100517.59
2022-08-30T12:58:59.112Z,100510.31
2022-08-30T13:01:37.431Z,100511.27
2022-08-30T13:04:20.891Z,100504.36
2022-08-30T13:06:53.867Z,100503.88
2022-08-30T13:09:42.851Z,100499.44
2022-08-30T13:12:27.352Z,100505.29
2022-08-30T13:15:27.872Z,100505.00
2022-08-30T13:18:21.709Z,100498.85
2022-08-30T13:21:23.190Z,100502.07
2022-08-30T13:24:01.786Z,100499.79
2022-08-30T13:26:37.742Z,100498.00
2022-08-30T13:29:19.729Z,100494.71
2022-08-30T13:31:49.502Z,100494.92
2022-08-30T13:34:19.327Z,100493.13
2022-08-30T13:36:54.323Z,100493.27
2022-08-30T13:39:23.010Z,100488.48
2022-08-30T13:41:52.363Z,100489.63
2022-08-30T13:44:21.398Z,100489.41
2022-08-30T13:46:55.501Z,100480.47
2022-08-30T13:49:47.344Z,100481.16
2022-08-30T13:52:22.688Z,100475.79
2022-08-30T13:54:57.163Z,100476.41
2022-08-30T14:00:21.933Z,100471.84
2022-08-30T14:02:55.077Z,100471.02
2022-08-30T14:08:45.358Z,100471.59
2022-08-30T14:11:19.419Z,100470.30
2022-08-30T14:16:43.862Z,100470.55
2022-08-30T14:19:15.332Z,100472.55
2022-08-30T14:21:48.769Z,100472.25
2022-08-30T14:24:20.262Z,100469.82
2022-08-30T14:26:51.582Z,100469.01
2022-08-30T14:29:26.307Z,100461.92
2022-08-30T14:31:59.693Z,100461.95
2022-08-30T14:34:29.566Z,100463.36
2022-08-30T14:36:58.364Z,100460.54
2022-08-30T14:39:27.197Z,100456.11
2022-08-30T14:41:56.631Z,100452.19
2022-08-30T14:44:25.914Z,100452.12
2022-08-30T14:46:55.784Z,100454.88
2022-08-30T14:49:25.540Z,100456.36
2022-08-30T14:51:56.142Z,100461.58
2022-08-30T14:54:28.532Z,100457.09
2022-08-30T14:56:58.218Z,100454.63
2022-08-30T14:59:27.396Z,100455.09
2022-08-30T15:01:55.800Z,100450.14
2022-08-30T15:04:24.352Z,100445.06
2022-08-30T15:06:53.690Z,100436.79
2022-08-30T15:09:24.743Z,100428.58
2022-08-30T15:11:56.647Z,100424.19
2022-08-30T15:14:29.095Z,100421.11
2022-08-30T15:16:59.617Z,100417.09
2022-08-30T15:19:27.957Z,100416.61
2022-08-30T15:22:03.024Z,100416.21
2022-08-30T15:24:33.661Z,100414.91
2022-08-30T15:27:03.704Z,100413.99
2022-08-30T15:29:32.187Z,100413.04
2022-08-30T15:32:02.525Z,100409.97
2022-08-30T15:34:31.944Z,100411.45
2022-08-30T15:37:01.059Z,100412.30
2022-08-30T15:39:29.634Z,100412.96
2022-08-30T15:42:00.960Z,100412.23
2022-08-30T15:44:32.212Z,100413.70
2022-08-30T15:47:03.443Z,100415.95
2022-08-30T15:49:32.236Z,100413.15
2022-08-30T15:52:04.327Z,100409.79
2022-08-30T15:54:32.974Z,100404.45
2022-08-30T15:57:01.428Z,100407.44
2022-08-30T15:59:32.533Z,100403.89
2022-08-30T16:02:01.040Z,100404.67
2022-08-30T16:04:30.012Z,100403.42
2022-08-30T16:06:58.404Z,100404.36
2022-08-30T16:09:30.054Z,100407.17
2022-08-30T16:12:04.676Z,100410.64
2022-08-30T16:14:34.771Z,100412.63
2022-08-30T16:17:03.946Z,100413.98
2022-08-30T16:19:33.337Z,100414.89
2022-08-30T16:22:02.003Z,100414.44
2022-08-30T16:24:30.377Z,100409.63
2022-08-30T16:26:58.721Z,100410.27
2022-08-30T16:29:27.002Z,100407.75
2022-08-30T16:31:56.743Z,100409.17
2022-08-30T16:34:26.509Z,100416.59
2022-08-30T16:36:55.312Z,100417.89
2022-08-30T16:39:23.726Z,100413.92
2022-08-30T16:41:52.688Z,100421.76
2022-08-30T16:44:21.094Z,100429.20
2022-08-30T16:46:53.120Z,100437.43
2022-08-30T16:49:24.875Z,100444.45
2022-08-30T16:51:54.567Z,100450.11
2022-08-30T16:54:23.785Z,100455.11
2022-08-30T16:56:52.754Z,100462.86
2022-08-30T16:59:21.242Z,100470.88
2022-08-30T17:01:50.070Z,100476.91
2022-08-30T17:04:19.589Z,100481.86
2022-08-30T17:06:50.100Z,100488.70
2022-08-30T17:09:20.893Z,100491.38
2022-08-30T17:11:50.667Z,100492.90
2022-08-30T17:14:27.829Z,100500.09
2022-08-30T17:17:00.560Z,100505.45
2022-08-30T17:19:29.917Z,100498.91
2022-08-30T17:21:59.213Z,100500.16
2022-08-30T17:24:27.996Z,100506.34
2022-08-30T17:26:58.322Z,100511.67
2022-08-30T17:29:27.252Z,100521.07
2022-08-30T17:31:56.944Z,100526.16
2022-08-30T17:34:27.436Z,100532.52
2022-08-30T17:36:59.893Z,100530.38
2022-08-30T17:39:29.747Z,100531.77
2022-08-30T17:41:58.739Z,100531.79
2022-08-30T17:44:33.059Z,100536.27
2022-08-30T17:47:01.797Z,100541.36
2022-08-30T17:49:30.629Z,100544.91
2022-08-30T17:52:01.519Z,100548.56
2022-08-30T17:54:32.588Z,100553.28
2022-08-30T17:57:02.197Z,100555.60
2022-08-30T17:59:31.680Z,100554.71
2022-08-30T18:02:02.834Z,100557.02
2022-08-30T18:04:31.786Z,100552.81
2022-08-30T18:07:00.070Z,100553.09
2022-08-30T18:09:33.210Z,100558.05
2022-08-30T18:12:02.511Z,100558.08
2022-08-30T18:14:31.065Z,100559.93
2022-08-30T18:16:59.636Z,100559.96
2022-08-30T18:19:30.434Z,100553.06
2022-08-30T18:21:59.888Z,100553.96
2022-08-30T18:24:31.923Z,100551.58
2022-08-30T18:27:03.780Z,100554.88
2022-08-30T18:29:32.139Z,100552.77
2022-08-30T18:32:02.564Z,100551.23
2022-08-30T18:34:31.185Z,100555.08
2022-08-30T18:36:59.784Z,100558.15
2022-08-30T18:39:34.678Z,100563.67
2022-08-30T18:42:06.215Z,100568.52
2022-08-30T18:44:35.768Z,100572.49
2022-08-30T18:47:05.686Z,100578.18
2022-08-30T18:49:36.363Z,100576.29
2022-08-30T18:52:08.393Z,100576.09
2022-08-30T18:54:41.158Z,100578.04
2022-08-30T18:57:10.644Z,100578.64
2022-08-30T18:59:42.012Z,100587.34
2022-08-30T19:02:15.758Z,100597.23
2022-08-30T19:04:45.905Z,100599.63
2022-08-30T19:07:17.604Z,100601.66
2022-08-30T19:09:46.982Z,100605.98
2022-08-30T19:12:16.106Z,100606.71
2022-08-30T19:14:44.493Z,100609.33
2022-08-30T19:17:13.542Z,100614.23
2022-08-30T19:19:48.784Z,100607.83
2022-08-30T19:22:22.360Z,100606.49
2022-08-30T19:24:52.417Z,100605.70
2022-08-30T19:27:37.292Z,100604.40
2022-08-30T19:30:16.132Z,100603.59
2022-08-30T19:32:47.334Z,100607.75
2022-08-30T19:35:17.883Z,100605.06
2022-08-30T19:37:48.140Z,100607.15
2022-08-30T19:40:19.437Z,100608.57
2022-08-30T19:42:49.694Z,100604.64
2022-08-30T19:45:21.799Z,100607.08
2022-08-30T19:48:09.102Z,100609.56
2022-08-30T19:50:39.456Z,100609.14
2022-08-30T19:53:09.234Z,100610.56
2022-08-30T19:55:39.360Z,100614.73
2022-08-30T19:58:07.724Z,100618.66
2022-08-30T20:00:39.248Z,100619.05
2022-08-30T20:03:13.920Z,100622.98
2022-08-30T20:05:44.072Z,100624.22
2022-08-30T20:08:12.713Z,100625.39
2022-08-30T20:10:44.194Z,100628.89
2022-08-30T20:13:13.349Z,100628.98
2022-08-30T20:15:41.629Z,100625.49
2022-08-30T20:18:14.786Z,100626.57
2022-08-30T20:20:49.359Z,100628.36
2022-08-30T20:23:22.970Z,100629.22
2022-08-30T20:25:54.589Z,100635.30
2022-08-30T20:28:25.205Z,100639.42
2022-08-30T20:30:54.735Z,100644.99
2022-08-30T20:33:25.591Z,100644.41
2022-08-30T20:35:54.012Z,100641.86
2022-08-30T20:38:22.579Z,100645.50
2022-08-30T20:40:55.186Z,100639.81
2022-08-30T20:43:26.831Z,100639.61
2022-08-30T20:45:56.054Z,100643.35
2022-08-30T20:48:27.261Z,100638.23
2022-08-30T20:50:55.630Z,100641.34
2022-08-30T20:53:24.411Z,100637.48
2022-08-30T20:55:52.683Z,100637.83
2022-08-30T20:58:20.942Z,100631.58
2022-08-30T21:00:54.724Z,100628.33
2022-08-30T21:03:26.366Z,100627.81
2022-08-30T21:05:56.927Z,100627.05
2022-08-30T21:08:25.913Z,100626.52
2022-08-30T21:10:55.324Z,100630.54
2022-08-30T21:13:24.027Z,100630.85
2022-08-30T21:15:54.935Z,100631.56
2022-08-30T21:18:26.012Z,100633.55
2022-08-30T21:20:54.298Z,100636.45
2022-08-30T21:23:23.724Z,100635.43
2022-08-30T21:25:52.178Z,100636.43
2022-08-30T21:28:21.474Z,100632.64
2022-08-30T21:30:49.836Z,100629.38
2022-08-30T21:33:18.138Z,100624.23
2022-08-30T21:36:05.137Z,100627.15
2022-08-30T21:38:33.428Z,100628.37
2022-08-30T21:41:01.825Z,100626.27
2022-08-30T21:43:30.104Z,100627.20
2022-08-30T21:46:04.794Z,100626.23
2022-08-30T21:48:37.753Z,100624.19
2022-08-30T21:51:09.018Z,100617.98
2022-08-30T21:53:37.663Z,100614.42
2022-08-30T21:56:21.680Z,100610.39
2022-08-30T21:58:50.551Z,100608.56
2022-08-30T22:01:23.781Z,100607.96
2022-08-30T22:03:55.038Z,100603.02
2022-08-30T22:06:31.087Z,100598.65
2022-08-30T22:09:03.482Z,100594.55
2022-08-30T22:11:32.771Z,100594.00
2022-08-30T22:14:01.542Z,100594.59
2022-08-30T22:16:30.540Z,100594.32
2022-08-30T22:18:59.239Z,100595.77
2022-08-30T22:21:31.825Z,100593.25
2022-08-30T22:24:00.835Z,100589.49
2022-08-30T22:26:29.625Z,100580.89
2022-08-30T22:28:58.317Z,100576.07
2022-08-30T22:31:26.709Z,100574.81
2022-08-30T22:33:55.583Z,100571.23
2022-08-30T22:36:32.687Z,100572.60
2022-08-30T22:39:03.096Z,100573.56
2022-08-30T22:41:36.465Z,100571.61
2022-08-30T22:44:06.527Z,100570.73
2022-08-30T22:46:36.561Z,100570.60
2022-08-30T22:49:07.922Z,100564.77
2022-08-30T22:51:37.286Z,100561.03
2022-08-30T22:54:08.437Z,100556.54
2022-08-30T22:56:38.645Z,100551.42
2022-08-30T22:59:07.518Z,100545.84
2022-08-30T23:01:40.857Z,100549.16
2022-08-30T23:04:10.881Z,100554.45
2022-08-30T23:06:40.043Z,100551.96
2022-08-30T23:09:09.714Z,100551.14
2022-08-30T23:11:39.817Z,100548.23
2022-08-30T23:14:08.125Z,100546.97
2022-08-30T23:16:36.691Z,100541.50
2022-08-30T23:19:05.577Z,100540.98
2022-08-30T23:21:33.875Z,100537.13
2022-08-30T23:24:20.597Z,100533.93
2022-08-30T23:27:07.674Z,100532.63
2022-08-30T23:29:54.997Z,100531.73
2022-08-30T23:32:42.105Z,100532.16
2022-08-30T23:35:31.894Z,100526.58
2022-08-30T23:38:22.600Z,100521.52
2022-08-30T23:41:09.228Z,100523.44
2022-08-30T23:43:56.837Z,100523.48
2022-08-30T23:46:43.574Z,100523.23
2022-08-30T23:49:30.577Z,100518.85
2022-08-30T23:52:17.288Z,100519.36
2022-08-30T23:55:04.413Z,100518.20
2022-08-30T23:57:51.510Z,100523.02
